sensor_id;sensor_type;location;lat;lon;timestamp;P1;durP1;ratioP1;P2;durP2;ratioP2
59659;SDS011;45534;52.690;6.268;2023-08-20T00:01:24;4.45;;;3.97;;
59659;SDS011;45534;52.690;6.268;2023-08-20T00:03:51;9.60;;;3.75;;
59659;SDS011;45534;52.690;6.268;2023-08-20T00:06:17;5.40;;;4.20;;
59659;SDS011;45534;52.690;6.268;2023-08-20T00:08:44;9.48;;;4.38;;
59659;SDS011;45534;52.690;6.268;2023-08-20T00:11:11;4.78;;;3.50;;
59659;SDS011;45534;52.690;6.268;2023-08-20T00:13:37;4.50;;;3.58;;
59659;SDS011;45534;52.690;6.268;2023-08-20T00:16:02;5.88;;;3.83;;
59659;SDS011;45534;52.690;6.268;2023-08-20T00:18:29;4.07;;;3.38;;
59659;SDS011;45534;52.690;6.268;2023-08-20T00:20:54;4.80;;;3.58;;
59659;SDS011;45534;52.690;6.268;2023-08-20T00:23:21;10.55;;;4.65;;
59659;SDS011;45534;52.690;6.268;2023-08-20T00:25:46;5.80;;;4.28;;
59659;SDS011;45534;52.690;6.268;2023-08-20T00:28:12;12.68;;;7.65;;
59659;SDS011;45534;52.690;6.268;2023-08-20T00:30:39;8.27;;;5.38;;
59659;SDS011;45534;52.690;6.268;2023-08-20T00:33:05;11.20;;;5.13;;
59659;SDS011;45534;52.690;6.268;2023-08-20T00:35:30;15.20;;;4.88;;
59659;SDS011;45534;52.690;6.268;2023-08-20T00:37:56;10.95;;;5.90;;
59659;SDS011;45534;52.690;6.268;2023-08-20T00:40:22;13.32;;;5.05;;
59659;SDS011;45534;52.690;6.268;2023-08-20T00:42:48;10.30;;;6.50;;
59659;SDS011;45534;52.690;6.268;2023-08-20T00:45:14;5.85;;;4.00;;
59659;SDS011;45534;52.690;6.268;2023-08-20T00:47:41;10.02;;;5.82;;
59659;SDS011;45534;52.690;6.268;2023-08-20T00:50:08;12.52;;;5.28;;
59659;SDS011;45534;52.690;6.268;2023-08-20T00:52:35;13.30;;;7.15;;
59659;SDS011;45534;52.690;6.268;2023-08-20T00:55:05;9.82;;;5.13;;
59659;SDS011;45534;52.690;6.268;2023-08-20T00:57:36;6.47;;;5.57;;
59659;SDS011;45534;52.690;6.268;2023-08-20T01:00:03;9.57;;;6.50;;
59659;SDS011;45534;52.690;6.268;2023-08-20T01:02:35;7.20;;;5.30;;
59659;SDS011;45534;52.690;6.268;2023-08-20T01:05:03;8.00;;;5.22;;
59659;SDS011;45534;52.690;6.268;2023-08-20T01:10:04;10.98;;;5.80;;
59659;SDS011;45534;52.690;6.268;2023-08-20T01:12:32;9.82;;;6.55;;
59659;SDS011;45534;52.690;6.268;2023-08-20T01:14:59;12.30;;;7.85;;
59659;SDS011;45534;52.690;6.268;2023-08-20T01:17:25;14.38;;;6.20;;
59659;SDS011;45534;52.690;6.268;2023-08-20T01:19:51;8.05;;;5.30;;
59659;SDS011;45534;52.690;6.268;2023-08-20T01:30:42;9.15;;;5.65;;
59659;SDS011;45534;52.690;6.268;2023-08-20T01:33:09;9.32;;;6.18;;
59659;SDS011;45534;52.690;6.268;2023-08-20T01:35:37;15.77;;;6.22;;
59659;SDS011;45534;52.690;6.268;2023-08-20T01:38:03;8.30;;;5.88;;
59659;SDS011;45534;52.690;6.268;2023-08-20T01:40:29;10.13;;;5.63;;
59659;SDS011;45534;52.690;6.268;2023-08-20T01:42:55;10.48;;;6.72;;
59659;SDS011;45534;52.690;6.268;2023-08-20T01:45:22;10.82;;;6.40;;
59659;SDS011;45534;52.690;6.268;2023-08-20T01:47:48;14.02;;;7.20;;
59659;SDS011;45534;52.690;6.268;2023-08-20T01:50:13;27.98;;;7.07;;
59659;SDS011;45534;52.690;6.268;2023-08-20T01:52:39;13.40;;;6.55;;
59659;SDS011;45534;52.690;6.268;2023-08-20T01:55:05;25.25;;;8.82;;
59659;SDS011;45534;52.690;6.268;2023-08-20T01:57:31;8.73;;;5.13;;
59659;SDS011;45534;52.690;6.268;2023-08-20T01:59:57;10.38;;;6.68;;
59659;SDS011;45534;52.690;6.268;2023-08-20T02:02:23;9.98;;;6.25;;
59659;SDS011;45534;52.690;6.268;2023-08-20T02:04:49;11.98;;;7.63;;
59659;SDS011;45534;52.690;6.268;2023-08-20T02:07:15;26.77;;;10.52;;
59659;SDS011;45534;52.690;6.268;2023-08-20T02:09:41;9.50;;;7.05;;
59659;SDS011;45534;52.690;6.268;2023-08-20T02:12:07;9.98;;;6.18;;
59659;SDS011;45534;52.690;6.268;2023-08-20T02:14:33;7.80;;;6.03;;
59659;SDS011;45534;52.690;6.268;2023-08-20T02:17:00;11.52;;;6.18;;
59659;SDS011;45534;52.690;6.268;2023-08-20T02:19:27;11.45;;;6.10;;
59659;SDS011;45534;52.690;6.268;2023-08-20T02:21:52;9.55;;;7.43;;
59659;SDS011;45534;52.690;6.268;2023-08-20T02:24:18;8.20;;;5.95;;
59659;SDS011;45534;52.690;6.268;2023-08-20T02:26:44;10.75;;;6.35;;
59659;SDS011;45534;52.690;6.268;2023-08-20T02:29:09;11.95;;;6.40;;
59659;SDS011;45534;52.690;6.268;2023-08-20T02:31:35;12.20;;;6.78;;
59659;SDS011;45534;52.690;6.268;2023-08-20T02:34:01;8.75;;;5.65;;
59659;SDS011;45534;52.690;6.268;2023-08-20T02:36:27;8.13;;;6.03;;
59659;SDS011;45534;52.690;6.268;2023-08-20T02:38:52;15.30;;;6.10;;
59659;SDS011;45534;52.690;6.268;2023-08-20T02:41:18;14.82;;;7.45;;
59659;SDS011;45534;52.690;6.268;2023-08-20T02:43:44;11.20;;;6.72;;
59659;SDS011;45534;52.690;6.268;2023-08-20T02:46:10;11.73;;;6.57;;
59659;SDS011;45534;52.690;6.268;2023-08-20T02:48:36;8.90;;;6.03;;
59659;SDS011;45534;52.690;6.268;2023-08-20T02:51:02;9.90;;;5.00;;
59659;SDS011;45534;52.690;6.268;2023-08-20T02:53:28;8.48;;;4.90;;
59659;SDS011;45534;52.690;6.268;2023-08-20T02:55:54;13.20;;;5.43;;
59659;SDS011;45534;52.690;6.268;2023-08-20T02:58:21;9.18;;;6.05;;
59659;SDS011;45534;52.690;6.268;2023-08-20T03:00:47;7.43;;;5.32;;
59659;SDS011;45534;52.690;6.268;2023-08-20T03:03:12;8.88;;;5.75;;
59659;SDS011;45534;52.690;6.268;2023-08-20T03:05:38;6.45;;;4.38;;
59659;SDS011;45534;52.690;6.268;2023-08-20T03:08:04;18.20;;;5.95;;
59659;SDS011;45534;52.690;6.268;2023-08-20T03:10:31;10.52;;;5.25;;
59659;SDS011;45534;52.690;6.268;2023-08-20T03:12:58;9.95;;;6.00;;
59659;SDS011;45534;52.690;6.268;2023-08-20T03:15:24;12.82;;;8.30;;
59659;SDS011;45534;52.690;6.268;2023-08-20T03:17:50;7.20;;;4.90;;
59659;SDS011;45534;52.690;6.268;2023-08-20T03:20:15;11.73;;;5.43;;
59659;SDS011;45534;52.690;6.268;2023-08-20T03:22:41;12.65;;;5.47;;
59659;SDS011;45534;52.690;6.268;2023-08-20T03:25:07;8.63;;;5.90;;
59659;SDS011;45534;52.690;6.268;2023-08-20T03:27:33;18.40;;;8.13;;
59659;SDS011;45534;52.690;6.268;2023-08-20T03:29:58;14.48;;;5.93;;
59659;SDS011;45534;52.690;6.268;2023-08-20T03:32:24;13.40;;;5.50;;
59659;SDS011;45534;52.690;6.268;2023-08-20T03:34:50;7.10;;;5.13;;
59659;SDS011;45534;52.690;6.268;2023-08-20T03:37:18;9.90;;;6.60;;
59659;SDS011;45534;52.690;6.268;2023-08-20T03:39:44;15.80;;;5.65;;
59659;SDS011;45534;52.690;6.268;2023-08-20T03:42:10;9.32;;;5.78;;
59659;SDS011;45534;52.690;6.268;2023-08-20T03:44:35;16.02;;;6.03;;
59659;SDS011;45534;52.690;6.268;2023-08-20T03:47:01;14.63;;;7.00;;
59659;SDS011;45534;52.690;6.268;2023-08-20T03:49:27;10.68;;;6.10;;
59659;SDS011;45534;52.690;6.268;2023-08-20T03:51:53;7.65;;;5.28;;
59659;SDS011;45534;52.690;6.268;2023-08-20T03:54:21;8.35;;;7.35;;
59659;SDS011;45534;52.690;6.268;2023-08-20T03:56:47;11.85;;;7.20;;
59659;SDS011;45534;52.690;6.268;2023-08-20T03:59:12;9.77;;;5.63;;
59659;SDS011;45534;52.690;6.268;2023-08-20T04:01:38;11.88;;;5.65;;
59659;SDS011;45534;52.690;6.268;2023-08-20T04:04:04;10.95;;;5.90;;
59659;SDS011;45534;52.690;6.268;2023-08-20T04:06:30;12.73;;;6.68;;
59659;SDS011;45534;52.690;6.268;2023-08-20T04:08:56;16.80;;;6.03;;
59659;SDS011;45534;52.690;6.268;2023-08-20T04:11:21;9.10;;;6.88;;
59659;SDS011;45534;52.690;6.268;2023-08-20T04:13:47;9.23;;;7.60;;
59659;SDS011;45534;52.690;6.268;2023-08-20T04:16:13;12.95;;;8.20;;
59659;SDS011;45534;52.690;6.268;2023-08-20T04:18:39;8.90;;;6.30;;
59659;SDS011;45534;52.690;6.268;2023-08-20T04:21:05;8.95;;;6.82;;
59659;SDS011;45534;52.690;6.268;2023-08-20T04:23:30;11.32;;;6.20;;
59659;SDS011;45534;52.690;6.268;2023-08-20T04:25:57;11.27;;;6.68;;
59659;SDS011;45534;52.690;6.268;2023-08-20T04:28:23;16.83;;;8.50;;
59659;SDS011;45534;52.690;6.268;2023-08-20T04:30:52;6.45;;;5.30;;
59659;SDS011;45534;52.690;6.268;2023-08-20T04:33:19;14.45;;;8.65;;
59659;SDS011;45534;52.690;6.268;2023-08-20T04:35:45;10.48;;;8.38;;
59659;SDS011;45534;52.690;6.268;2023-08-20T04:38:11;11.77;;;7.93;;
59659;SDS011;45534;52.690;6.268;2023-08-20T04:40:37;8.50;;;6.40;;
59659;SDS011;45534;52.690;6.268;2023-08-20T04:43:02;11.57;;;6.95;;
59659;SDS011;45534;52.690;6.268;2023-08-20T04:45:28;9.82;;;6.88;;
59659;SDS011;45534;52.690;6.268;2023-08-20T04:47:54;11.27;;;7.20;;
59659;SDS011;45534;52.690;6.268;2023-08-20T04:50:19;9.07;;;6.93;;
59659;SDS011;45534;52.690;6.268;2023-08-20T04:52:45;13.27;;;7.38;;
59659;SDS011;45534;52.690;6.268;2023-08-20T04:55:11;8.60;;;6.10;;
59659;SDS011;45534;52.690;6.268;2023-08-20T04:57:37;25.67;;;7.20;;
59659;SDS011;45534;52.690;6.268;2023-08-20T05:00:02;7.72;;;5.50;;
59659;SDS011;45534;52.690;6.268;2023-08-20T05:02:28;14.63;;;8.75;;
59659;SDS011;45534;52.690;6.268;2023-08-20T05:04:54;17.85;;;6.25;;
59659;SDS011;45534;52.690;6.268;2023-08-20T05:07:20;13.98;;;7.75;;
59659;SDS011;45534;52.690;6.268;2023-08-20T05:09:46;10.00;;;7.53;;
59659;SDS011;45534;52.690;6.268;2023-08-20T05:12:11;10.13;;;6.30;;
59659;SDS011;45534;52.690;6.268;2023-08-20T05:14:37;10.95;;;6.32;;
59659;SDS011;45534;52.690;6.268;2023-08-20T05:17:03;14.85;;;6.95;;
59659;SDS011;45534;52.690;6.268;2023-08-20T05:19:28;13.45;;;6.78;;
59659;SDS011;45534;52.690;6.268;2023-08-20T05:21:54;8.68;;;6.05;;
59659;SDS011;45534;52.690;6.268;2023-08-20T05:24:23;11.18;;;6.82;;
59659;SDS011;45534;52.690;6.268;2023-08-20T05:27:03;9.95;;;7.00;;
59659;SDS011;45534;52.690;6.268;2023-08-20T05:29:32;15.85;;;6.75;;
59659;SDS011;45534;52.690;6.268;2023-08-20T05:31:58;15.18;;;7.47;;
59659;SDS011;45534;52.690;6.268;2023-08-20T05:34:24;15.00;;;7.03;;
59659;SDS011;45534;52.690;6.268;2023-08-20T05:36:50;13.65;;;9.75;;
59659;SDS011;45534;52.690;6.268;2023-08-20T05:39:15;10.90;;;7.10;;
59659;SDS011;45534;52.690;6.268;2023-08-20T05:41:41;12.63;;;7.75;;
59659;SDS011;45534;52.690;6.268;2023-08-20T05:44:07;8.57;;;6.05;;
59659;SDS011;45534;52.690;6.268;2023-08-20T05:46:32;18.30;;;6.85;;
59659;SDS011;45534;52.690;6.268;2023-08-20T05:48:58;12.40;;;6.20;;
59659;SDS011;45534;52.690;6.268;2023-08-20T05:51:24;20.23;;;6.07;;
59659;SDS011;45534;52.690;6.268;2023-08-20T05:53:49;8.50;;;4.93;;
59659;SDS011;45534;52.690;6.268;2023-08-20T05:56:15;7.72;;;6.05;;
59659;SDS011;45534;52.690;6.268;2023-08-20T05:58:40;8.30;;;5.47;;
59659;SDS011;45534;52.690;6.268;2023-08-20T06:01:06;8.32;;;5.30;;
59659;SDS011;45534;52.690;6.268;2023-08-20T06:03:32;9.52;;;7.45;;
59659;SDS011;45534;52.690;6.268;2023-08-20T06:05:57;17.40;;;6.05;;
59659;SDS011;45534;52.690;6.268;2023-08-20T06:08:23;11.93;;;6.43;;
59659;SDS011;45534;52.690;6.268;2023-08-20T06:10:49;7.80;;;4.72;;
59659;SDS011;45534;52.690;6.268;2023-08-20T06:13:15;15.93;;;6.57;;
59659;SDS011;45534;52.690;6.268;2023-08-20T06:15:41;12.95;;;6.43;;
59659;SDS011;45534;52.690;6.268;2023-08-20T06:18:07;6.50;;;4.97;;
59659;SDS011;45534;52.690;6.268;2023-08-20T06:20:33;9.27;;;5.13;;
59659;SDS011;45534;52.690;6.268;2023-08-20T06:22:58;6.60;;;5.45;;
59659;SDS011;45534;52.690;6.268;2023-08-20T06:25:24;6.45;;;4.57;;
59659;SDS011;45534;52.690;6.268;2023-08-20T06:27:50;24.48;;;10.27;;
59659;SDS011;45534;52.690;6.268;2023-08-20T06:30:15;8.40;;;6.32;;
59659;SDS011;45534;52.690;6.268;2023-08-20T06:32:41;14.02;;;6.43;;
59659;SDS011;45534;52.690;6.268;2023-08-20T06:35:09;10.27;;;6.07;;
59659;SDS011;45534;52.690;6.268;2023-08-20T06:37:35;8.20;;;6.00;;
59659;SDS011;45534;52.690;6.268;2023-08-20T06:40:00;6.53;;;3.63;;
59659;SDS011;45534;52.690;6.268;2023-08-20T06:42:26;14.75;;;6.28;;
59659;SDS011;45534;52.690;6.268;2023-08-20T06:44:52;7.63;;;6.55;;
59659;SDS011;45534;52.690;6.268;2023-08-20T06:47:17;16.52;;;8.10;;
59659;SDS011;45534;52.690;6.268;2023-08-20T06:49:43;13.20;;;7.13;;
59659;SDS011;45534;52.690;6.268;2023-08-20T06:52:09;29.80;;;6.70;;
59659;SDS011;45534;52.690;6.268;2023-08-20T06:54:34;10.15;;;7.60;;
59659;SDS011;45534;52.690;6.268;2023-08-20T06:57:00;16.52;;;5.68;;
59659;SDS011;45534;52.690;6.268;2023-08-20T06:59:26;9.75;;;6.53;;
59659;SDS011;45534;52.690;6.268;2023-08-20T07:01:52;17.80;;;5.70;;
59659;SDS011;45534;52.690;6.268;2023-08-20T07:04:18;5.45;;;4.35;;
59659;SDS011;45534;52.690;6.268;2023-08-20T07:06:43;8.80;;;5.05;;
59659;SDS011;45534;52.690;6.268;2023-08-20T07:09:09;6.57;;;4.18;;
59659;SDS011;45534;52.690;6.268;2023-08-20T07:11:35;9.18;;;4.30;;
59659;SDS011;45534;52.690;6.268;2023-08-20T07:14:01;9.30;;;4.43;;
59659;SDS011;45534;52.690;6.268;2023-08-20T07:16:26;10.88;;;5.57;;
59659;SDS011;45534;52.690;6.268;2023-08-20T07:18:52;12.38;;;4.80;;
59659;SDS011;45534;52.690;6.268;2023-08-20T07:21:18;5.72;;;4.07;;
59659;SDS011;45534;52.690;6.268;2023-08-20T07:23:44;13.02;;;5.40;;
59659;SDS011;45534;52.690;6.268;2023-08-20T07:26:10;9.50;;;4.55;;
59659;SDS011;45534;52.690;6.268;2023-08-20T07:28:40;22.60;;;6.03;;
59659;SDS011;45534;52.690;6.268;2023-08-20T07:31:24;10.60;;;4.93;;
59659;SDS011;45534;52.690;6.268;2023-08-20T07:33:51;8.30;;;3.88;;
59659;SDS011;45534;52.690;6.268;2023-08-20T07:36:17;7.68;;;4.45;;
59659;SDS011;45534;52.690;6.268;2023-08-20T07:38:44;15.50;;;7.95;;
59659;SDS011;45534;52.690;6.268;2023-08-20T07:41:10;12.20;;;3.33;;
59659;SDS011;45534;52.690;6.268;2023-08-20T07:43:37;13.95;;;5.97;;
59659;SDS011;45534;52.690;6.268;2023-08-20T07:46:03;14.80;;;4.32;;
59659;SDS011;45534;52.690;6.268;2023-08-20T07:48:29;7.22;;;3.33;;
59659;SDS011;45534;52.690;6.268;2023-08-20T07:50:55;6.28;;;3.67;;
59659;SDS011;45534;52.690;6.268;2023-08-20T07:53:21;11.05;;;6.38;;
59659;SDS011;45534;52.690;6.268;2023-08-20T07:55:46;6.95;;;2.97;;
59659;SDS011;45534;52.690;6.268;2023-08-20T07:58:12;5.57;;;3.47;;
59659;SDS011;45534;52.690;6.268;2023-08-20T08:00:38;5.50;;;3.97;;
59659;SDS011;45534;52.690;6.268;2023-08-20T08:03:04;13.93;;;4.93;;
59659;SDS011;45534;52.690;6.268;2023-08-20T08:05:29;13.10;;;5.88;;
59659;SDS011;45534;52.690;6.268;2023-08-20T08:07:55;10.18;;;4.38;;
59659;SDS011;45534;52.690;6.268;2023-08-20T08:10:21;14.60;;;4.95;;
59659;SDS011;45534;52.690;6.268;2023-08-20T08:12:47;11.20;;;4.57;;
59659;SDS011;45534;52.690;6.268;2023-08-20T08:15:13;4.78;;;3.45;;
59659;SDS011;45534;52.690;6.268;2023-08-20T08:17:38;7.50;;;3.72;;
59659;SDS011;45534;52.690;6.268;2023-08-20T08:20:05;7.57;;;4.32;;
59659;SDS011;45534;52.690;6.268;2023-08-20T08:22:31;12.98;;;4.05;;
59659;SDS011;45534;52.690;6.268;2023-08-20T08:24:56;6.43;;;2.47;;
59659;SDS011;45534;52.690;6.268;2023-08-20T08:27:22;10.57;;;4.40;;
59659;SDS011;45534;52.690;6.268;2023-08-20T08:29:48;9.52;;;3.60;;
59659;SDS011;45534;52.690;6.268;2023-08-20T08:32:13;3.03;;;2.35;;
59659;SDS011;45534;52.690;6.268;2023-08-20T08:34:39;11.60;;;3.08;;
59659;SDS011;45534;52.690;6.268;2023-08-20T08:37:05;7.13;;;4.70;;
59659;SDS011;45534;52.690;6.268;2023-08-20T08:39:30;9.55;;;5.07;;
59659;SDS011;45534;52.690;6.268;2023-08-20T08:42:00;6.30;;;3.08;;
59659;SDS011;45534;52.690;6.268;2023-08-20T08:44:34;9.05;;;4.05;;
59659;SDS011;45534;52.690;6.268;2023-08-20T08:47:01;13.30;;;6.35;;
59659;SDS011;45534;52.690;6.268;2023-08-20T08:49:28;16.95;;;3.20;;
59659;SDS011;45534;52.690;6.268;2023-08-20T08:51:58;6.18;;;3.33;;
59659;SDS011;45534;52.690;6.268;2023-08-20T08:54:24;15.65;;;5.75;;
59659;SDS011;45534;52.690;6.268;2023-08-20T08:56:51;20.42;;;6.13;;
59659;SDS011;45534;52.690;6.268;2023-08-20T08:59:18;15.27;;;5.03;;
59659;SDS011;45534;52.690;6.268;2023-08-20T09:01:44;6.93;;;3.55;;
59659;SDS011;45534;52.690;6.268;2023-08-20T09:04:10;6.72;;;3.22;;
59659;SDS011;45534;52.690;6.268;2023-08-20T09:09:31;8.35;;;3.83;;
59659;SDS011;45534;52.690;6.268;2023-08-20T09:11:57;10.70;;;4.72;;
59659;SDS011;45534;52.690;6.268;2023-08-20T09:14:24;3.88;;;2.25;;
59659;SDS011;45534;52.690;6.268;2023-08-20T09:17:00;14.15;;;2.55;;
59659;SDS011;45534;52.690;6.268;2023-08-20T09:19:30;13.23;;;5.20;;
59659;SDS011;45534;52.690;6.268;2023-08-20T09:22:00;12.98;;;5.53;;
59659;SDS011;45534;52.690;6.268;2023-08-20T09:24:26;4.30;;;2.20;;
59659;SDS011;45534;52.690;6.268;2023-08-20T09:27:09;8.05;;;2.50;;
59659;SDS011;45534;52.690;6.268;2023-08-20T09:29:43;11.50;;;4.85;;
59659;SDS011;45534;52.690;6.268;2023-08-20T09:32:15;10.23;;;4.63;;
59659;SDS011;45534;52.690;6.268;2023-08-20T09:34:42;9.63;;;3.50;;
59659;SDS011;45534;52.690;6.268;2023-08-20T09:37:08;12.20;;;5.18;;
59659;SDS011;45534;52.690;6.268;2023-08-20T09:39:35;10.02;;;4.53;;
59659;SDS011;45534;52.690;6.268;2023-08-20T09:42:01;10.05;;;5.78;;
59659;SDS011;45534;52.690;6.268;2023-08-20T09:44:32;10.88;;;5.13;;
59659;SDS011;45534;52.690;6.268;2023-08-20T09:47:00;5.50;;;3.20;;
59659;SDS011;45534;52.690;6.268;2023-08-20T09:49:41;16.13;;;5.78;;
59659;SDS011;45534;52.690;6.268;2023-08-20T09:52:09;4.00;;;3.15;;
59659;SDS011;45534;52.690;6.268;2023-08-20T09:54:42;8.43;;;4.43;;
59659;SDS011;45534;52.690;6.268;2023-08-20T09:57:12;13.45;;;4.05;;
59659;SDS011;45534;52.690;6.268;2023-08-20T09:59:48;16.20;;;2.67;;
59659;SDS011;45534;52.690;6.268;2023-08-20T10:02:15;14.68;;;4.30;;
59659;SDS011;45534;52.690;6.268;2023-08-20T10:04:42;8.00;;;3.60;;
59659;SDS011;45534;52.690;6.268;2023-08-20T10:07:09;7.82;;;2.60;;
59659;SDS011;45534;52.690;6.268;2023-08-20T10:09:37;13.80;;;4.80;;
59659;SDS011;45534;52.690;6.268;2023-08-20T10:12:04;15.98;;;3.55;;
59659;SDS011;45534;52.690;6.268;2023-08-20T10:14:31;12.77;;;5.05;;
59659;SDS011;45534;52.690;6.268;2023-08-20T10:16:58;4.43;;;2.00;;
59659;SDS011;45534;52.690;6.268;2023-08-20T10:19:25;4.05;;;2.38;;
59659;SDS011;45534;52.690;6.268;2023-08-20T10:21:54;11.45;;;3.30;;
59659;SDS011;45534;52.690;6.268;2023-08-20T10:24:22;4.03;;;2.40;;
59659;SDS011;45534;52.690;6.268;2023-08-20T10:26:49;6.55;;;2.05;;
59659;SDS011;45534;52.690;6.268;2023-08-20T10:29:40;13.13;;;3.97;;
59659;SDS011;45534;52.690;6.268;2023-08-20T10:32:10;10.98;;;3.97;;
59659;SDS011;45534;52.690;6.268;2023-08-20T10:34:37;2.30;;;1.73;;
59659;SDS011;45534;52.690;6.268;2023-08-20T10:37:13;11.27;;;3.17;;
59659;SDS011;45534;52.690;6.268;2023-08-20T10:39:39;10.43;;;3.10;;
59659;SDS011;45534;52.690;6.268;2023-08-20T10:45:01;11.13;;;2.90;;
59659;SDS011;45534;52.690;6.268;2023-08-20T10:50:09;8.27;;;2.95;;
59659;SDS011;45534;52.690;6.268;2023-08-20T10:52:39;8.85;;;3.47;;
59659;SDS011;45534;52.690;6.268;2023-08-20T10:55:07;6.38;;;3.10;;
59659;SDS011;45534;52.690;6.268;2023-08-20T10:57:36;9.80;;;2.65;;
59659;SDS011;45534;52.690;6.268;2023-08-20T11:00:03;5.35;;;1.98;;
59659;SDS011;45534;52.690;6.268;2023-08-20T11:02:40;7.28;;;2.95;;
59659;SDS011;45534;52.690;6.268;2023-08-20T11:05:20;8.90;;;3.45;;
59659;SDS011;45534;52.690;6.268;2023-08-20T11:07:48;8.68;;;3.67;;
59659;SDS011;45534;52.690;6.268;2023-08-20T11:10:17;8.40;;;2.88;;
59659;SDS011;45534;52.690;6.268;2023-08-20T11:12:45;8.43;;;3.05;;
59659;SDS011;45534;52.690;6.268;2023-08-20T11:15:11;9.90;;;3.38;;
59659;SDS011;45534;52.690;6.268;2023-08-20T11:17:47;6.25;;;2.78;;
59659;SDS011;45534;52.690;6.268;2023-08-20T11:20:15;5.25;;;2.00;;
59659;SDS011;45534;52.690;6.268;2023-08-20T11:22:41;8.35;;;2.58;;
59659;SDS011;45534;52.690;6.268;2023-08-20T11:25:10;8.52;;;2.60;;
59659;SDS011;45534;52.690;6.268;2023-08-20T11:27:43;6.78;;;3.55;;
59659;SDS011;45534;52.690;6.268;2023-08-20T11:30:09;10.60;;;3.72;;
59659;SDS011;45534;52.690;6.268;2023-08-20T11:32:39;12.60;;;3.88;;
59659;SDS011;45534;52.690;6.268;2023-08-20T11:35:05;8.57;;;2.78;;
59659;SDS011;45534;52.690;6.268;2023-08-20T11:37:32;6.55;;;2.67;;
59659;SDS011;45534;52.690;6.268;2023-08-20T11:39:58;7.43;;;2.85;;
59659;SDS011;45534;52.690;6.268;2023-08-20T11:42:24;8.70;;;2.78;;
59659;SDS011;45534;52.690;6.268;2023-08-20T11:44:50;5.97;;;2.40;;
59659;SDS011;45534;52.690;6.268;2023-08-20T11:47:16;10.27;;;3.50;;
59659;SDS011;45534;52.690;6.268;2023-08-20T11:49:42;6.30;;;2.53;;
59659;SDS011;45534;52.690;6.268;2023-08-20T11:52:09;12.65;;;3.53;;
59659;SDS011;45534;52.690;6.268;2023-08-20T11:54:35;8.30;;;3.30;;
59659;SDS011;45534;52.690;6.268;2023-08-20T11:57:05;15.25;;;3.35;;
59659;SDS011;45534;52.690;6.268;2023-08-20T11:59:31;6.65;;;2.78;;
59659;SDS011;45534;52.690;6.268;2023-08-20T12:01:59;7.97;;;2.90;;
59659;SDS011;45534;52.690;6.268;2023-08-20T12:04:27;7.93;;;3.83;;
59659;SDS011;45534;52.690;6.268;2023-08-20T12:07:03;9.40;;;3.05;;
59659;SDS011;45534;52.690;6.268;2023-08-20T12:09:30;7.68;;;3.03;;
59659;SDS011;45534;52.690;6.268;2023-08-20T12:11:56;10.50;;;3.30;;
59659;SDS011;45534;52.690;6.268;2023-08-20T12:14:23;13.10;;;4.00;;
59659;SDS011;45534;52.690;6.268;2023-08-20T12:16:49;11.32;;;3.35;;
59659;SDS011;45534;52.690;6.268;2023-08-20T12:19:18;12.80;;;3.78;;
59659;SDS011;45534;52.690;6.268;2023-08-20T12:21:44;8.80;;;3.05;;
59659;SDS011;45534;52.690;6.268;2023-08-20T12:24:10;8.30;;;3.28;;
59659;SDS011;45534;52.690;6.268;2023-08-20T12:26:37;7.47;;;2.70;;
59659;SDS011;45534;52.690;6.268;2023-08-20T12:29:05;7.68;;;3.45;;
59659;SDS011;45534;52.690;6.268;2023-08-20T12:31:32;9.45;;;4.10;;
59659;SDS011;45534;52.690;6.268;2023-08-20T12:33:58;9.32;;;3.33;;
59659;SDS011;45534;52.690;6.268;2023-08-20T12:36:24;7.97;;;2.80;;
59659;SDS011;45534;52.690;6.268;2023-08-20T12:38:50;6.30;;;2.70;;
59659;SDS011;45534;52.690;6.268;2023-08-20T12:41:15;6.18;;;2.90;;
59659;SDS011;45534;52.690;6.268;2023-08-20T12:43:41;5.18;;;2.50;;
59659;SDS011;45534;52.690;6.268;2023-08-20T12:46:07;5.28;;;3.20;;
59659;SDS011;45534;52.690;6.268;2023-08-20T12:48:33;7.65;;;2.10;;
59659;SDS011;45534;52.690;6.268;2023-08-20T12:50:58;4.30;;;2.58;;
59659;SDS011;45534;52.690;6.268;2023-08-20T12:53:24;4.97;;;2.28;;
59659;SDS011;45534;52.690;6.268;2023-08-20T12:55:50;10.35;;;2.55;;
59659;SDS011;45534;52.690;6.268;2023-08-20T12:58:15;10.00;;;2.45;;
59659;SDS011;45534;52.690;6.268;2023-08-20T13:00:41;5.00;;;2.20;;
59659;SDS011;45534;52.690;6.268;2023-08-20T13:03:07;6.05;;;3.30;;
59659;SDS011;45534;52.690;6.268;2023-08-20T13:05:33;4.90;;;2.47;;
59659;SDS011;45534;52.690;6.268;2023-08-20T13:07:59;7.18;;;2.53;;
59659;SDS011;45534;52.690;6.268;2023-08-20T13:10:25;7.10;;;3.15;;
59659;SDS011;45534;52.690;6.268;2023-08-20T13:12:51;7.90;;;2.55;;
59659;SDS011;45534;52.690;6.268;2023-08-20T13:15:19;7.53;;;2.35;;
59659;SDS011;45534;52.690;6.268;2023-08-20T13:17:47;6.25;;;2.90;;
59659;SDS011;45534;52.690;6.268;2023-08-20T13:20:14;7.72;;;1.92;;
59659;SDS011;45534;52.690;6.268;2023-08-20T13:22:46;5.57;;;2.08;;
59659;SDS011;45534;52.690;6.268;2023-08-20T13:25:12;5.72;;;2.20;;
59659;SDS011;45534;52.690;6.268;2023-08-20T13:27:38;3.92;;;1.90;;
59659;SDS011;45534;52.690;6.268;2023-08-20T13:30:04;3.10;;;1.95;;
59659;SDS011;45534;52.690;6.268;2023-08-20T13:32:34;5.82;;;2.78;;
59659;SDS011;45534;52.690;6.268;2023-08-20T13:35:00;5.20;;;2.15;;
59659;SDS011;45534;52.690;6.268;2023-08-20T13:37:27;6.72;;;2.63;;
59659;SDS011;45534;52.690;6.268;2023-08-20T13:39:54;3.92;;;2.00;;
59659;SDS011;45534;52.690;6.268;2023-08-20T13:42:19;6.18;;;2.28;;
59659;SDS011;45534;52.690;6.268;2023-08-20T13:44:45;2.95;;;1.75;;
59659;SDS011;45534;52.690;6.268;2023-08-20T13:47:11;5.63;;;2.08;;
59659;SDS011;45534;52.690;6.268;2023-08-20T13:49:36;4.45;;;1.52;;
59659;SDS011;45534;52.690;6.268;2023-08-20T13:52:02;3.28;;;1.75;;
59659;SDS011;45534;52.690;6.268;2023-08-20T13:54:28;3.70;;;1.65;;
59659;SDS011;45534;52.690;6.268;2023-08-20T13:56:54;7.75;;;3.17;;
59659;SDS011;45534;52.690;6.268;2023-08-20T13:59:19;2.63;;;1.65;;
59659;SDS011;45534;52.690;6.268;2023-08-20T14:01:45;4.13;;;2.20;;
59659;SDS011;45534;52.690;6.268;2023-08-20T14:04:10;3.50;;;1.70;;
59659;SDS011;45534;52.690;6.268;2023-08-20T14:06:36;3.38;;;2.40;;
59659;SDS011;45534;52.690;6.268;2023-08-20T14:09:02;4.57;;;2.00;;
59659;SDS011;45534;52.690;6.268;2023-08-20T14:11:29;6.63;;;1.90;;
59659;SDS011;45534;52.690;6.268;2023-08-20T14:13:55;3.40;;;2.15;;
59659;SDS011;45534;52.690;6.268;2023-08-20T14:16:21;4.13;;;2.10;;
59659;SDS011;45534;52.690;6.268;2023-08-20T14:18:47;4.00;;;1.63;;
59659;SDS011;45534;52.690;6.268;2023-08-20T14:21:12;6.82;;;2.50;;
59659;SDS011;45534;52.690;6.268;2023-08-20T14:23:38;4.72;;;1.77;;
59659;SDS011;45534;52.690;6.268;2023-08-20T14:26:05;3.95;;;2.03;;
59659;SDS011;45534;52.690;6.268;2023-08-20T14:28:32;4.85;;;2.25;;
59659;SDS011;45534;52.690;6.268;2023-08-20T14:31:01;1.90;;;1.70;;
59659;SDS011;45534;52.690;6.268;2023-08-20T14:33:29;5.37;;;2.40;;
59659;SDS011;45534;52.690;6.268;2023-08-20T14:35:55;4.68;;;1.83;;
59659;SDS011;45534;52.690;6.268;2023-08-20T14:38:21;4.47;;;1.75;;
59659;SDS011;45534;52.690;6.268;2023-08-20T14:40:47;2.67;;;1.80;;
59659;SDS011;45534;52.690;6.268;2023-08-20T14:43:12;6.18;;;2.42;;
59659;SDS011;45534;52.690;6.268;2023-08-20T14:45:38;5.60;;;2.22;;
59659;SDS011;45534;52.690;6.268;2023-08-20T14:48:04;5.63;;;2.53;;
59659;SDS011;45534;52.690;6.268;2023-08-20T14:50:30;4.28;;;2.50;;
59659;SDS011;45534;52.690;6.268;2023-08-20T14:52:56;6.80;;;2.80;;
59659;SDS011;45534;52.690;6.268;2023-08-20T14:55:22;5.78;;;2.30;;
59659;SDS011;45534;52.690;6.268;2023-08-20T14:57:48;6.78;;;2.97;;
59659;SDS011;45534;52.690;6.268;2023-08-20T15:00:14;4.55;;;1.77;;